Time;durP1;ratioP1;P1;durP2;ratioP2;P2;SDS_P1;SDS_P2;PMS_P1;PMS_P2;Temp;Humidity;BMP_temperature;BMP_pressure;BME280_temperature;BME280_humidity;BME280_pressure;Samples;Min_cycle;Max_cycle;Signal;HPM_P1;HPM_P2
2023/09/20 00:01:24;;;;;;;2.30;1.33;;;13.90;99.90;;;13.67;100.00;97191.16;5046655;28;20020;-40
2023/09/20 00:03:50;;;;;;;1.95;1.30;;;13.90;99.90;;;13.65;100.00;97193.03;5051919;28;20234;-41
2023/09/20 00:06:18;;;;;;;1.63;1.10;;;13.90;99.90;;;13.65;100.00;97198.34;5051270;28;20063;-41
2023/09/20 00:08:44;;;;;;;2.83;1.27;;;13.90;99.90;;;13.62;100.00;97193.19;5050062;28;20547;-41
2023/09/20 00:11:15;;;;;;;2.10;1.35;;;13.80;99.90;;;13.51;100.00;97189.31;5049023;28;20132;-41
2023/09/20 00:13:41;;;;;;;2.33;1.40;;;13.80;99.90;;;13.52;100.00;97192.81;5046150;28;20043;-40
2023/09/20 00:16:09;;;;;;;1.70;1.25;;;13.70;99.90;;;13.47;100.00;97192.19;5050882;28;20035;-41
2023/09/20 00:18:39;;;;;;;1.77;1.23;;;13.70;99.90;;;13.44;100.00;97189.69;5044239;28;20036;-41
2023/09/20 00:21:04;;;;;;;2.08;1.23;;;13.70;99.90;;;13.41;100.00;97185.44;5051052;28;20118;-40
2023/09/20 00:23:30;;;;;;;2.17;1.10;;;13.60;99.90;;;13.32;100.00;97167.38;5052022;28;20115;-43
2023/09/20 00:25:57;;;;;;;2.72;1.30;;;13.60;99.90;;;13.34;100.00;97184.88;5048303;28;20032;-41
2023/09/20 00:28:22;;;;;;;2.58;1.33;;;13.60;99.90;;;13.28;100.00;97179.00;5047138;28;21821;-41
2023/09/20 00:30:48;;;;;;;2.97;1.33;;;13.60;99.90;;;13.29;100.00;97176.28;5048269;28;20032;-41
2023/09/20 00:33:15;;;;;;;1.75;1.20;;;13.50;99.90;;;13.31;100.00;97169.16;5046588;28;20404;-41
2023/09/20 00:35:40;;;;;;;3.22;1.20;;;13.60;99.90;;;13.31;100.00;97176.25;5052334;28;20056;-40
2023/09/20 00:38:10;;;;;;;1.52;1.02;;;13.50;99.90;;;13.23;100.00;97159.88;5049561;28;20469;-40
2023/09/20 00:40:37;;;;;;;1.83;1.27;;;13.60;99.90;;;13.35;100.00;97168.06;5047621;28;20037;-42
2023/09/20 00:43:07;;;;;;;4.13;1.13;;;13.60;99.90;;;13.34;100.00;97162.84;5048663;28;20032;-40
2023/09/20 00:45:36;;;;;;;1.90;1.30;;;13.60;99.90;;;13.31;100.00;97169.16;5044594;28;20021;-41
2023/09/20 00:48:02;;;;;;;2.20;1.10;;;13.60;99.90;;;13.30;100.00;97167.41;5045497;28;20041;-42
2023/09/20 00:50:31;;;;;;;2.40;1.20;;;13.60;99.90;;;13.26;100.00;97165.88;5047225;28;20119;-41
2023/09/20 00:53:05;;;;;;;2.70;1.27;;;13.50;99.90;;;13.26;100.00;97165.88;5047648;28;20398;-40
2023/09/20 00:55:34;;;;;;;1.70;1.10;;;13.50;99.90;;;13.26;100.00;97163.22;5051246;28;20021;-42
2023/09/20 00:58:06;;;;;;;3.08;1.15;;;13.50;99.90;;;13.23;100.00;97159.88;5048080;28;20029;-40
2023/09/20 01:00:33;;;;;;;3.55;1.15;;;13.50;99.90;;;13.20;100.00;97158.22;5049852;28;20051;-40
2023/09/20 01:03:01;;;;;;;3.40;1.45;;;13.40;99.90;;;13.17;100.00;97151.31;5046571;28;20127;-40
2023/09/20 01:05:28;;;;;;;3.00;1.70;;;13.40;99.90;;;13.17;100.00;97158.38;5050610;28;20062;-41
2023/09/20 01:07:56;;;;;;;1.75;1.30;;;13.40;99.90;;;13.15;100.00;97153.19;5051378;28;20527;-40
2023/09/20 01:10:24;;;;;;;2.22;1.50;;;13.40;99.90;;;13.15;100.00;97158.47;5052101;28;20327;-41
2023/09/20 01:12:55;;;;;;;3.35;1.50;;;13.40;99.90;;;13.17;100.00;97147.78;5049245;28;20055;-41
2023/09/20 01:15:22;;;;;;;2.63;1.50;;;13.40;99.90;;;13.12;100.00;97145.38;5050298;28;20047;-40
2023/09/20 01:17:49;;;;;;;2.95;1.55;;;13.40;99.90;;;13.11;100.00;97146.31;5050148;28;20036;-40
2023/09/20 01:23:57;;;;;;;2.58;1.35;;;13.40;99.90;;;13.16;100.00;97149.59;5029055;28;20039;-41
2023/09/20 01:26:23;;;;;;;2.17;1.30;;;13.40;99.90;;;13.17;100.00;97155.72;5041838;28;20122;-41
2023/09/20 01:28:48;;;;;;;2.92;1.40;;;13.40;99.90;;;13.19;100.00;97145.94;5049831;28;20103;-41
2023/09/20 01:31:14;;;;;;;2.35;1.30;;;13.40;99.90;;;13.23;100.00;97152.78;5045326;28;20071;-41
2023/09/20 01:33:40;;;;;;;4.03;1.30;;;13.50;99.90;;;13.26;100.00;97155.28;5046356;28;20033;-41
2023/09/20 01:36:06;;;;;;;1.75;1.38;;;13.50;99.90;;;13.27;100.00;97150.81;5045320;28;20078;-41
2023/09/20 01:38:32;;;;;;;3.13;1.58;;;13.50;99.90;;;13.27;100.00;97149.03;5048199;28;20480;-40
2023/09/20 01:40:58;;;;;;;2.17;1.45;;;13.50;99.90;;;13.27;100.00;97151.69;5047639;28;20060;-41
2023/09/20 01:43:24;;;;;;;3.28;1.50;;;13.50;99.90;;;13.28;100.00;97148.09;5044279;28;20025;-42
2023/09/20 01:45:50;;;;;;;1.88;1.27;;;13.50;99.90;;;13.25;100.00;97153.56;5047922;28;21551;-40
2023/09/20 01:48:16;;;;;;;2.40;1.40;;;13.50;99.90;;;13.16;100.00;97130.19;5047397;28;20105;-40
2023/09/20 01:50:42;;;;;;;3.13;1.30;;;13.50;99.90;;;13.26;100.00;97144.69;5049689;28;20063;-40
2023/09/20 01:53:10;;;;;;;1.98;1.20;;;13.50;99.90;;;13.30;100.00;97150.69;5044330;28;20032;-41
2023/09/20 01:55:37;;;;;;;1.48;1.17;;;13.60;99.90;;;13.30;100.00;97140.09;5046901;28;20551;-40
2023/09/20 01:58:06;;;;;;;2.20;1.20;;;13.50;99.90;;;13.28;100.00;97148.09;5046008;28;20476;-40
2023/09/20 02:00:39;;;;;;;1.55;1.20;;;13.50;99.90;;;13.30;100.00;97140.09;5046849;28;20135;-40
2023/09/20 02:03:13;;;;;;;1.90;1.13;;;13.60;99.90;;;13.29;100.00;97138.38;5045154;28;20032;-40
2023/09/20 02:05:40;;;;;;;1.88;1.25;;;13.50;99.90;;;13.28;100.00;97141.94;5045378;28;20645;-40
2023/09/20 02:08:08;;;;;;;2.95;1.30;;;13.50;99.90;;;13.28;100.00;97140.16;5045587;28;20137;-41
2023/09/20 02:10:36;;;;;;;2.72;1.48;;;13.50;99.90;;;13.29;100.00;97136.56;5044826;28;20028;-41
2023/09/20 02:13:03;;;;;;;1.40;1.23;;;13.50;99.90;;;13.31;100.00;97136.50;5045870;28;20389;-42
2023/09/20 02:15:31;;;;;;;3.53;1.13;;;13.60;99.90;;;13.32;100.00;97135.59;5047747;28;20054;-41
2023/09/20 02:17:57;;;;;;;1.80;1.48;;;13.50;99.90;;;13.31;100.00;97131.22;5047593;28;20040;-41
2023/09/20 02:20:24;;;;;;;4.00;1.20;;;13.60;99.90;;;13.34;100.00;97136.38;5045308;28;20386;-40
2023/09/20 02:22:55;;;;;;;2.38;1.20;;;13.60;99.90;;;13.40;100.00;97132.53;5048212;28;20029;-41
2023/09/20 02:25:22;;;;;;;2.25;1.23;;;13.60;99.90;;;13.43;100.00;97133.22;5045120;28;20126;-41
2023/09/20 02:27:49;;;;;;;2.90;1.33;;;13.70;99.90;;;13.42;100.00;97120.06;5029931;28;20378;-41
2023/09/20 02:30:19;;;;;;;3.47;1.20;;;13.70;99.90;;;13.51;100.00;97127.53;5042413;28;20059;-40
2023/09/20 02:32:52;;;;;;;1.95;1.30;;;13.70;99.90;;;13.52;100.00;97130.09;5043021;28;20554;-41
2023/09/20 02:35:20;;;;;;;1.95;1.20;;;13.70;99.90;;;13.53;100.00;97125.63;5046367;28;20489;-41
2023/09/20 02:37:47;;;;;;;2.05;1.10;;;13.80;99.90;;;13.52;100.00;97132.75;5045319;28;20037;-40
2023/09/20 02:40:14;;;;;;;3.15;1.60;;;13.80;99.90;;;13.57;100.00;97132.50;5043667;28;20028;-41
2023/09/20 02:42:58;;;;;;;2.97;1.42;;;13.80;99.90;;;13.56;100.00;97130.78;5045690;28;20044;-41
2023/09/20 02:45:25;;;;;;;2.15;1.20;;;13.80;99.90;;;13.61;100.00;97125.25;5045138;28;20028;-41
2023/09/20 02:47:52;;;;;;;1.70;1.17;;;13.80;99.90;;;13.54;100.00;97127.38;5044047;28;20039;-40
2023/09/20 02:50:23;;;;;;;3.03;1.40;;;13.80;99.90;;;13.60;100.00;97131.47;5047878;28;20024;-40
2023/09/20 02:52:51;;;;;;;2.25;1.27;;;13.90;99.90;;;13.63;100.00;97139.28;5043455;28;20167;-40
2023/09/20 02:55:20;;;;;;;3.70;1.58;;;13.80;99.90;;;13.58;100.00;97130.72;5047023;28;20032;-40
2023/09/20 02:57:54;;;;;;;3.80;1.35;;;13.90;99.90;;;13.56;100.00;97131.63;5040424;28;20075;-41
2023/09/20 03:00:27;;;;;;;2.00;1.33;;;13.80;99.90;;;13.52;100.00;97130.09;5049176;28;20436;-41
2023/09/20 03:03:00;;;;;;;2.88;1.25;;;13.80;99.90;;;13.49;100.00;97122.28;5044999;28;20484;-40
2023/09/20 03:05:29;;;;;;;2.42;1.17;;;13.80;99.90;;;13.46;100.00;97119.84;5044131;28;20231;-40
2023/09/20 03:07:55;;;;;;;2.42;1.30;;;13.70;99.90;;;13.38;100.00;97106.13;5039612;28;20040;-39
2023/09/20 03:10:22;;;;;;;2.00;1.25;;;13.70;99.90;;;13.43;100.00;97113.84;5048389;28;20484;-41
2023/09/20 03:12:54;;;;;;;2.60;1.40;;;13.70;99.90;;;13.42;100.00;97112.13;5040152;28;20039;-40
2023/09/20 03:15:23;;;;;;;3.22;1.38;;;13.70;99.90;;;13.42;100.00;97106.81;5049455;28;20424;-40
2023/09/20 03:17:52;;;;;;;2.90;1.50;;;13.70;99.90;;;13.43;100.00;97104.09;5049554;28;20033;-40
2023/09/20 03:20:22;;;;;;;1.88;1.20;;;13.70;99.90;;;13.45;100.00;97106.66;5046350;28;20060;-40
2023/09/20 03:22:51;;;;;;;2.25;1.45;;;13.70;99.90;;;13.38;100.00;97103.47;5041104;28;20032;-40
2023/09/20 03:25:19;;;;;;;4.13;1.42;;;13.70;99.90;;;13.42;100.00;97104.16;5046098;28;20428;-41
2023/09/20 03:27:46;;;;;;;1.90;1.42;;;13.70;99.90;;;13.40;100.00;97106.91;5047749;28;20029;-40
2023/09/20 03:30:13;;;;;;;1.27;1.17;;;13.60;99.90;;;13.38;100.00;97099.97;5048391;28;20472;-40
2023/09/20 03:32:42;;;;;;;2.55;1.40;;;13.60;99.90;;;13.35;100.00;97096.56;5048620;28;20385;-41
2023/09/20 03:35:09;;;;;;;2.00;1.23;;;13.60;99.90;;;13.27;100.00;97098.72;5047495;28;20352;-40
2023/09/20 03:37:38;;;;;;;1.77;1.23;;;13.50;99.90;;;13.22;100.00;97095.44;5051913;28;20032;-40
2023/09/20 03:40:10;;;;;;;2.55;1.23;;;13.50;99.90;;;13.13;100.00;97088.00;5046064;28;20336;-40
2023/09/20 03:42:46;;;;;;;1.17;1.08;;;13.40;99.90;;;13.13;100.00;97085.34;5049157;28;20040;-40
2023/09/20 03:45:15;;;;;;;1.90;1.20;;;13.40;99.90;;;13.09;100.00;97089.94;5045369;28;20032;-41
2023/09/20 03:47:50;;;;;;;3.08;1.40;;;13.40;99.90;;;13.08;100.00;97092.66;5048551;28;20032;-39
2023/09/20 03:50:19;;;;;;;5.32;1.38;;;13.30;99.90;;;13.05;100.00;97087.53;5049648;28;20036;-40
2023/09/20 03:52:46;;;;;;;1.67;1.33;;;13.30;99.90;;;13.04;100.00;97081.38;5053710;28;20036;-40
2023/09/20 03:55:12;;;;;;;1.38;1.10;;;13.30;99.90;;;13.03;100.00;97084.97;5048049;28;20419;-40
2023/09/20 03:57:38;;;;;;;1.63;1.20;;;13.30;99.90;;;13.01;100.00;97073.63;5051733;28;20037;-41
2023/09/20 04:00:11;;;;;;;2.25;1.42;;;13.30;99.90;;;12.99;100.00;97072.81;5042285;28;20351;-41
2023/09/20 04:02:37;;;;;;;3.28;1.38;;;13.20;99.90;;;12.95;100.00;97065.97;5044706;28;20495;-41
2023/09/20 04:05:10;;;;;;;2.15;1.27;;;13.20;99.90;;;12.95;100.00;97065.97;5047726;28;20074;-39
2023/09/20 04:07:37;;;;;;;2.60;1.15;;;13.20;99.90;;;12.92;100.00;97074.94;5047870;28;20033;-41
2023/09/20 04:10:03;;;;;;;1.35;1.02;;;13.20;99.90;;;12.86;100.00;97062.00;5043538;28;20036;-40
2023/09/20 04:12:29;;;;;;;4.40;1.48;;;13.20;99.90;;;12.95;100.00;97072.13;5050646;28;20820;-39
2023/09/20 04:14:54;;;;;;;3.63;1.50;;;13.20;99.90;;;12.95;100.00;97072.13;5047825;28;20063;-40
2023/09/20 04:17:25;;;;;;;2.00;1.30;;;13.20;99.90;;;12.95;100.00;97074.75;5050122;28;20512;-40
2023/09/20 04:19:52;;;;;;;2.80;1.20;;;13.20;99.90;;;12.96;100.00;97070.34;5047806;28;20025;-40
2023/09/20 04:22:18;;;;;;;4.97;1.55;;;13.20;99.90;;;12.98;100.00;97071.97;5046596;28;20040;-40
2023/09/20 04:24:43;;;;;;;2.00;1.35;;;13.30;99.90;;;13.00;100.00;97074.53;5048699;28;20032;-39
2023/09/20 04:27:09;;;;;;;2.25;1.40;;;13.30;99.90;;;12.97;100.00;97066.75;5048599;28;20723;-40
2023/09/20 04:29:37;;;;;;;2.10;1.50;;;13.30;99.90;;;12.95;100.00;97068.63;5049076;28;20029;-41
2023/09/20 04:32:04;;;;;;;2.67;1.33;;;13.20;99.90;;;12.95;100.00;97065.97;5038513;28;20438;-40
2023/09/20 04:34:30;;;;;;;2.40;1.60;;;13.20;99.90;;;12.94;100.00;97053.69;5041743;28;20043;-40
2023/09/20 04:36:56;;;;;;;2.10;1.40;;;13.20;99.90;;;12.94;100.00;97059.84;5041886;28;20040;-42
2023/09/20 04:39:24;;;;;;;2.10;1.40;;;13.20;99.90;;;12.83;100.00;97040.13;5040207;28;20788;-40
2023/09/20 04:41:50;;;;;;;3.05;1.38;;;13.20;99.90;;;12.90;100.00;97060.06;5036751;28;20492;-40
2023/09/20 04:44:16;;;;;;;2.25;1.35;;;13.20;99.90;;;12.80;100.00;97049.94;5043622;28;20550;-40
2023/09/20 04:46:43;;;;;;;2.90;1.30;;;13.10;99.90;;;12.89;100.00;97061.84;5045482;28;20020;-38
2023/09/20 04:49:10;;;;;;;2.45;1.30;;;13.20;99.90;;;12.85;100.00;97047.09;5045715;28;20020;-38
2023/09/20 04:51:37;;;;;;;1.85;1.17;;;13.20;99.90;;;12.85;100.00;97044.44;5044489;28;21063;-38
2023/09/20 04:54:05;;;;;;;1.88;1.33;;;13.10;99.90;;;12.90;100.00;97057.41;5042429;28;20481;-39
2023/09/20 04:56:31;;;;;;;2.25;1.25;;;13.20;99.90;;;12.86;100.00;97050.56;5049717;28;20619;-39
2023/09/20 04:58:57;;;;;;;3.13;1.38;;;13.10;99.90;;;12.88;100.00;97057.50;5048695;28;20042;-38
2023/09/20 05:01:26;;;;;;;2.90;1.27;;;13.20;99.90;;;12.88;100.00;97054.00;5046185;28;20060;-38
2023/09/20 05:03:51;;;;;;;1.80;1.30;;;13.20;99.90;;;12.89;100.00;97063.66;5047426;28;20499;-39
2023/09/20 05:06:18;;;;;;;1.90;1.38;;;13.10;99.90;;;12.88;100.00;97059.28;5046542;28;20024;-38
2023/09/20 05:08:44;;;;;;;4.40;1.42;;;13.20;99.90;;;12.87;100.00;97054.94;5042021;28;20032;-38
2023/09/20 05:11:10;;;;;;;2.47;1.60;;;13.10;99.90;;;12.87;100.00;97060.25;5044975;28;20039;-39
2023/09/20 05:13:36;;;;;;;2.55;1.42;;;13.20;99.90;;;12.85;100.00;97059.44;5037815;28;20286;-38
2023/09/20 05:16:05;;;;;;;1.50;1.17;;;13.10;99.90;;;12.82;100.00;97059.63;5041794;28;20072;-38
2023/09/20 05:18:31;;;;;;;2.90;1.40;;;13.10;99.90;;;12.83;100.00;97062.19;5049101;28;20217;-39
2023/09/20 05:20:56;;;;;;;1.65;1.27;;;13.10;99.90;;;12.81;100.00;97066.69;5051637;28;20039;-38
2023/09/20 05:23:22;;;;;;;1.38;1.10;;;13.10;99.90;;;12.80;100.00;97057.03;5047441;28;20025;-38
2023/09/20 05:25:48;;;;;;;2.30;1.23;;;13.10;99.90;;;12.86;100.00;97067.31;5048819;28;20111;-38
2023/09/20 05:28:15;;;;;;;2.45;1.48;;;13.10;99.90;;;12.81;100.00;97056.09;5051185;28;20031;-39
2023/09/20 05:30:44;;;;;;;3.03;1.42;;;13.10;99.90;;;12.85;100.00;97062.97;5047443;28;20366;-38
2023/09/20 05:33:13;;;;;;;1.95;1.42;;;13.10;99.90;;;12.83;100.00;97059.53;5052266;28;20123;-38
2023/09/20 05:35:40;;;;;;;3.15;1.58;;;13.10;99.90;;;12.84;100.00;97063.03;5043105;28;20033;-38
2023/09/20 05:38:06;;;;;;;2.88;1.40;;;13.10;99.90;;;12.85;100.00;97065.59;5047843;28;20848;-38
2023/09/20 05:40:36;;;;;;;2.25;1.40;;;13.10;99.90;;;12.91;100.00;97067.94;5048138;28;20028;-38
2023/09/20 05:43:03;;;;;;;3.20;1.45;;;13.20;99.90;;;12.90;100.00;97057.41;5052661;28;20036;-38
2023/09/20 05:45:30;;;;;;;2.53;1.48;;;13.20;99.90;;;12.95;100.00;97053.59;5053538;28;20036;-38
2023/09/20 05:47:58;;;;;;;3.63;1.70;;;13.20;99.90;;;13.03;100.00;97055.84;5050875;28;20024;-38
2023/09/20 05:50:33;;;;;;;3.08;1.40;;;13.30;99.90;;;13.12;100.00;97057.16;5051672;28;20824;-39
2023/09/20 05:53:10;;;;;;;1.65;1.17;;;13.40;99.90;;;13.21;100.00;97064.63;5051097;28;20333;-38
2023/09/20 05:55:38;;;;;;;1.77;1.27;;;13.50;99.90;;;13.22;100.00;97055.72;5053403;28;20366;-37
2023/09/20 05:58:05;;;;;;;3.60;1.55;;;13.60;99.90;;;13.40;100.00;97068.97;5050831;28;20090;-37
2023/09/20 06:00:30;;;;;;;2.38;1.30;;;13.70;99.90;;;13.41;100.00;97052.16;5051312;28;20059;-37
2023/09/20 06:02:57;;;;;;;3.10;1.70;;;13.70;99.90;;;13.51;100.00;97059.50;5049717;28;20112;-37
2023/09/20 06:05:26;;;;;;;6.07;1.42;;;13.90;99.90;;;13.56;100.00;97052.16;5051564;28;20130;-39
2023/09/20 06:07:56;;;;;;;2.42;1.50;;;13.90;99.90;;;13.79;100.00;97067.75;5047717;28;20037;-38
2023/09/20 06:10:22;;;;;;;2.35;1.70;;;14.00;99.90;;;13.91;100.00;97077.69;5052028;28;20104;-38
2023/09/20 06:12:50;;;;;;;3.28;1.55;;;14.20;99.90;;;14.06;100.00;97073.31;5048195;28;20054;-37
2023/09/20 06:15:16;;;;;;;2.75;1.60;;;14.30;99.90;;;13.89;100.00;97022.09;5051446;28;20056;-38
2023/09/20 06:17:47;;;;;;;1.98;1.30;;;14.50;99.90;;;14.41;100.00;97075.72;5051135;28;20021;-37
2023/09/20 06:20:13;;;;;;;2.78;1.50;;;14.70;99.90;;;14.59;100.00;97080.03;5052116;28;20028;-37
2023/09/20 06:22:42;;;;;;;2.05;1.40;;;14.90;99.90;;;14.80;100.00;97079.69;5049002;28;20047;-38
2023/09/20 06:25:08;;;;;;;2.13;1.67;;;15.10;99.90;;;14.99;100.00;97077.66;5050858;28;20040;-38
2023/09/20 06:27:34;;;;;;;3.50;1.40;;;15.30;99.90;;;15.21;100.00;97079.03;5049566;28;20508;-38
2023/09/20 06:30:06;;;;;;;1.90;1.38;;;15.40;99.90;;;15.42;100.00;97076.88;5046800;28;20392;-38
2023/09/20 06:32:35;;;;;;;2.72;1.70;;;15.70;99.90;;;15.57;100.00;97067.09;5050343;28;20028;-38
2023/09/20 06:35:04;;;;;;;2.75;1.30;;;15.90;99.90;;;15.79;100.00;97066.59;5050711;28;21089;-38
2023/09/20 06:37:30;;;;;;;2.20;1.55;;;16.00;99.90;;;15.92;100.00;97067.56;5048278;28;20272;-38
2023/09/20 06:39:57;;;;;;;3.00;1.60;;;16.20;99.90;;;16.00;100.00;97059.06;5049051;28;20035;-39
2023/09/20 06:42:25;;;;;;;4.45;1.58;;;16.20;99.90;;;16.04;100.00;97060.56;5046849;28;20041;-37
2023/09/20 06:44:52;;;;;;;1.83;1.45;;;16.20;99.90;;;16.08;100.00;97062.13;5051105;28;20031;-40
2023/09/20 06:47:18;;;;;;;1.90;1.20;;;16.30;99.90;;;16.17;100.00;97056.19;5046333;28;20046;-39
2023/09/20 06:49:44;;;;;;;5.65;1.73;;;16.40;99.90;;;16.24;100.00;97059.31;5050182;28;20036;-39
2023/09/20 06:52:12;;;;;;;2.70;1.50;;;16.40;99.90;;;16.33;100.00;97055.16;5047415;28;20053;-38
2023/09/20 06:54:38;;;;;;;2.50;1.40;;;16.50;99.90;;;16.35;100.00;97048.81;5051412;28;20036;-38
2023/09/20 06:57:05;;;;;;;1.92;1.20;;;16.60;99.90;;;16.55;100.00;97057.28;5042813;28;20048;-38
2023/09/20 06:59:37;;;;;;;3.33;1.27;;;16.70;99.90;;;16.70;100.00;97050.91;5047860;28;20126;-38
2023/09/20 07:02:03;;;;;;;2.97;1.15;;;16.90;99.90;;;16.88;100.00;97048.00;5045165;28;20398;-39
2023/09/20 07:04:31;;;;;;;3.00;1.48;;;17.00;99.90;;;16.99;100.00;97034.81;5050460;28;20037;-39
2023/09/20 07:07:00;;;;;;;5.35;1.63;;;17.20;99.90;;;17.12;100.00;97042.78;5043412;28;20029;-39
2023/09/20 07:09:26;;;;;;;3.78;1.42;;;17.30;99.90;;;17.21;100.00;97035.97;5051511;28;20029;-39
2023/09/20 07:11:53;;;;;;;3.33;1.25;;;17.40;99.90;;;17.46;100.00;97048.44;5053511;28;20304;-40
2023/09/20 07:14:23;;;;;;;2.30;1.40;;;17.60;99.90;;;17.69;100.00;97046.81;5053543;28;20622;-38
2023/09/20 07:16:50;;;;;;;4.45;1.38;;;17.80;99.90;;;17.87;100.00;97044.69;5051694;28;20404;-40
2023/09/20 07:19:18;;;;;;;3.70;1.40;;;18.10;99.90;;;18.03;100.00;97045.25;5058023;28;20033;-40
2023/09/20 07:21:45;;;;;;;4.53;1.35;;;18.20;99.90;;;18.22;100.00;97046.63;5054306;28;20125;-41
2023/09/20 07:24:15;;;;;;;2.15;1.42;;;18.40;99.90;;;18.37;100.00;97041.94;5056947;28;20468;-36
2023/09/20 07:26:45;;;;;;;2.78;1.35;;;18.50;99.90;;;18.44;100.00;97040.53;5052817;28;20040;-36
2023/09/20 07:29:15;;;;;;;4.75;1.48;;;18.60;99.90;;;18.54;100.00;97040.69;5052939;28;20056;-36
2023/09/20 07:31:42;;;;;;;3.60;1.30;;;18.70;99.90;;;18.57;100.00;97038.63;5054894;28;20029;-37
2023/09/20 07:34:12;;;;;;;4.70;1.48;;;18.70;99.90;;;18.63;98.77;97032.00;5054717;28;20043;-36
2023/09/20 07:36:40;;;;;;;3.03;1.48;;;18.80;99.90;;;18.65;98.71;97038.06;5051199;28;20574;-36
2023/09/20 07:39:12;;;;;;;2.50;1.45;;;18.80;99.90;;;18.67;99.63;97046.81;5053542;28;20139;-36
2023/09/20 07:41:44;;;;;;;2.10;1.20;;;18.80;99.90;;;18.70;99.42;97035.91;5054720;28;20032;-36
2023/09/20 07:44:13;;;;;;;2.33;1.27;;;18.80;99.90;;;18.78;99.28;97036.16;5053482;28;20039;-36
2023/09/20 07:46:39;;;;;;;4.85;1.10;;;18.90;99.90;;;18.82;95.34;97034.97;5055464;28;20033;-37
2023/09/20 07:49:13;;;;;;;2.88;1.63;;;19.00;99.90;;;18.86;97.06;97032.94;5055187;28;20384;-36
2023/09/20 07:51:39;;;;;;;1.40;1.25;;;19.10;99.90;;;19.02;95.56;97032.59;5053764;28;20036;-37
2023/09/20 07:54:09;;;;;;;2.10;1.40;;;19.10;99.90;;;19.01;93.05;97026.41;5052687;28;20396;-37
2023/09/20 07:56:34;;;;;;;2.88;1.65;;;19.20;99.90;;;19.08;93.07;97030.31;5052670;28;20036;-36
2023/09/20 07:59:03;;;;;;;1.40;1.10;;;19.30;99.90;;;19.19;92.54;97023.31;5053398;28;20036;-36
2023/09/20 08:01:30;;;;;;;2.80;1.48;;;19.40;99.90;;;19.28;86.65;97025.25;5053369;28;20035;-36
2023/09/20 08:03:59;;;;;;;5.60;1.52;;;19.40;99.90;;;19.33;87.05;97014.22;5054123;28;20024;-37
2023/09/20 08:06:27;;;;;;;2.20;1.17;;;19.50;99.90;;;19.52;87.90;97017.09;5056599;28;20274;-36
2023/09/20 08:08:55;;;;;;;1.67;1.13;;;19.60;99.90;;;19.61;88.38;97005.69;5053041;28;20114;-37
2023/09/20 08:11:21;;;;;;;1.75;1.27;;;19.70;99.90;;;19.74;88.96;97010.06;5054728;28;20111;-36
2023/09/20 08:13:46;;;;;;;3.17;1.70;;;19.90;99.90;;;19.84;86.47;97001.19;5051031;28;20540;-37
2023/09/20 08:16:12;;;;;;;2.50;1.48;;;19.90;99.90;;;19.92;82.88;97005.94;5056074;28;20044;-36
2023/09/20 08:21:26;;;;;;;3.60;1.38;;;20.10;99.90;;;20.17;81.01;97004.78;5049978;28;20082;-38
2023/09/20 09:00:24;;;;;;;2.97;1.23;;;21.80;99.90;;;21.82;65.98;97027.50;5075980;28;20047;-36
2023/09/20 09:02:54;;;;;;;2.78;1.65;;;21.90;99.90;;;21.86;64.05;97032.47;5054120;28;20040;-37
2023/09/20 09:05:23;;;;;;;4.78;1.70;;;21.90;99.90;;;21.83;64.59;97026.53;5052865;28;20131;-36
2023/09/20 09:07:49;;;;;;;3.53;1.90;;;21.90;99.90;;;21.76;66.34;97004.72;5040666;28;20947;-38
2023/09/20 09:10:16;;;;;;;4.93;1.73;;;21.90;99.90;;;21.97;63.43;97012.72;5048924;28;20770;-36
2023/09/20 09:12:43;;;;;;;2.33;1.45;;;21.90;99.90;;;22.07;62.98;97018.97;5055340;28;20028;-39
2023/09/20 09:15:11;;;;;;;2.42;1.30;;;22.10;99.90;;;22.25;59.99;97011.09;5047027;28;20757;-39
2023/09/20 09:17:43;;;;;;;1.92;1.40;;;22.30;99.90;;;22.37;57.31;97003.75;5054517;28;20039;-39
2023/09/20 09:20:11;;;;;;;2.33;1.35;;;22.40;99.90;;;22.43;55.00;97007.72;5052245;28;20037;-39
2023/09/20 09:22:41;;;;;;;2.85;1.30;;;22.50;99.90;;;22.45;53.22;97005.75;5052110;28;20048;-40
2023/09/20 09:25:30;;;;;;;2.53;1.65;;;22.50;99.90;;;22.44;55.32;97001.38;5049560;28;20564;-39
2023/09/20 09:27:56;;;;;;;2.83;1.20;;;22.50;99.90;;;22.41;55.61;96999.78;5054223;28;20393;-37
2023/09/20 09:30:22;;;;;;;1.83;1.52;;;22.40;99.90;;;22.31;56.44;97007.03;5050579;28;20315;-36
2023/09/20 09:32:48;;;;;;;2.92;1.70;;;22.40;99.90;;;22.23;57.02;97004.97;5052869;28;20040;-36
2023/09/20 09:35:19;;;;;;;2.35;1.42;;;22.30;99.90;;;22.19;58.25;96994.66;5050056;28;20111;-37
2023/09/20 09:37:45;;;;;;;2.50;1.15;;;22.20;99.90;;;22.15;56.06;96987.88;5053376;28;20121;-36
2023/09/20 09:40:14;;;;;;;2.40;1.40;;;22.20;99.90;;;22.11;57.06;96996.22;5048786;28;20024;-40
2023/09/20 09:42:43;;;;;;;2.67;1.55;;;22.10;99.90;;;22.01;56.60;96984.59;5049042;28;20033;-38
2023/09/20 09:45:09;;;;;;;2.92;1.38;;;22.00;99.90;;;22.00;57.58;96985.59;5047271;28;20082;-38
2023/09/20 09:47:37;;;;;;;2.25;1.50;;;22.00;99.90;;;21.97;61.09;96995.78;5049670;28;20020;-38
2023/09/20 09:50:06;;;;;;;2.58;1.38;;;21.90;99.90;;;21.99;59.40;96983.91;5049895;28;20544;-39
2023/09/20 09:52:33;;;;;;;2.97;1.38;;;21.90;99.90;;;21.99;62.80;96978.53;5047592;28;20055;-38
2023/09/20 09:54:58;;;;;;;1.90;1.55;;;22.00;99.90;;;22.04;61.80;96975.44;5048313;28;20033;-39
2023/09/20 09:57:24;;;;;;;2.30;1.40;;;22.00;99.90;;;22.02;65.30;96975.56;5051304;28;20283;-39
2023/09/20 09:59:52;;;;;;;3.72;1.50;;;22.00;99.90;;;21.94;57.17;96970.03;5050160;28;20387;-38
2023/09/20 10:02:24;;;;;;;2.13;1.45;;;21.90;99.90;;;21.93;55.65;96963.81;5046877;28;20037;-39
2023/09/20 10:05:02;;;;;;;5.10;1.58;;;21.90;99.90;;;21.84;55.08;96961.09;5053587;28;20103;-39
2023/09/20 10:07:41;;;;;;;2.90;1.52;;;21.80;99.90;;;21.81;55.90;96959.56;5049925;28;20487;-39
2023/09/20 10:10:13;;;;;;;4.05;1.73;;;21.80;99.90;;;21.76;51.67;96966.31;5047006;28;20209;-38
2023/09/20 10:12:46;;;;;;;;;;;21.80;98.90;;;21.74;53.04;96966.44;5049970;28;20129;-39
2023/09/20 10:15:14;;;;;;;2.30;1.50;;;21.70;99.40;;;21.69;52.10;96961.47;5049642;28;19927;-38
2023/09/20 10:17:54;;;;;;;2.47;1.38;;;21.70;99.10;;;21.66;51.12;96964.47;5044666;28;20119;-38
2023/09/20 10:20:22;;;;;;;2.30;1.40;;;21.60;98.60;;;21.72;52.10;96965.75;5049915;28;20070;-39
2023/09/20 10:22:49;;;;;;;2.53;1.73;;;21.70;99.20;;;21.74;50.66;96956.56;5048642;28;20111;-38
2023/09/20 10:25:34;;;;;;;3.65;1.70;;;21.70;98.10;;;21.76;50.35;96959.09;5047125;28;20504;-38
2023/09/20 10:28:08;;;;;;;3.03;1.33;;;21.70;97.40;;;21.76;50.51;96951.06;5049947;28;20025;-38
2023/09/20 10:31:04;;;;;;;2.60;1.85;;;21.70;98.30;;;21.69;49.13;96950.75;5047998;28;20472;-38
2023/09/20 10:33:45;;;;;;;2.90;1.60;;;21.70;97.00;;;21.71;49.90;96954.16;5047937;28;20075;-38
2023/09/20 10:36:19;;;;;;;2.90;1.70;;;21.70;97.80;;;21.81;49.51;96946.13;5047957;28;20044;-39
2023/09/20 10:38:46;;;;;;;2.60;1.63;;;21.70;97.40;;;21.82;49.44;96945.16;5047700;28;20032;-38
2023/09/20 10:41:13;;;;;;;2.67;1.88;;;21.80;97.30;;;21.78;47.83;96932.97;5045482;28;20042;-38
2023/09/20 10:43:41;;;;;;;2.72;1.98;;;21.80;96.60;;;21.79;47.80;96929.31;5046959;28;20476;-38
2023/09/20 10:46:12;;;;;;;6.97;1.98;;;21.80;96.40;;;21.82;47.96;96931.75;5047909;28;20040;-39
2023/09/20 10:48:50;;;;;;;2.25;1.65;;;21.80;96.40;;;21.86;47.75;96924.25;5049860;28;20028;-38
2023/09/20 10:51:44;;;;;;;4.25;2.10;;;21.90;96.60;;;21.87;46.95;96921.41;5047698;28;20114;-39
2023/09/20 10:54:29;;;;;;;2.67;1.80;;;21.90;96.00;;;21.72;44.62;96901.34;5049950;28;20094;-39
2023/09/20 10:57:06;;;;;;;2.95;1.88;;;21.90;94.10;;;21.83;44.52;96914.63;5048368;28;20036;-39
2023/09/20 10:59:32;;;;;;;2.25;1.75;;;21.80;93.90;;;21.81;45.57;96913.94;5046822;28;20032;-37
2023/09/20 11:02:04;;;;;;;2.38;1.92;;;21.80;94.60;;;21.82;47.18;96907.59;5047872;28;20047;-38
2023/09/20 11:04:30;;;;;;;4.53;1.88;;;21.90;95.60;;;21.89;46.49;96891.75;5046802;28;20033;-39